RUK905 EGSS-EICK
Flight info
| Callsign | RUK905 |
|---|---|
| Flight time | N/A |
| Altitude | 36000 |
| Route | NUGBO M183 SILVA P86 DIDZA N14 OKSAW DCT BIBPE DCT TIGWE DCT FELCA DCT NICXI DCT OFSOX DCT BANBA DCT VAPAL VAPAL1R |
| Aircraft | B738/M-SDE3FGILRWY/SB1 |
Departure
| Time | 2026-05-06 15:02 |
|---|---|
| Airport | London Stansted Airport (EGSS) |
Arrival
| Time | N/A |
|---|---|
| Airport | Cork International Airport (EICK) |
| Time | Latitude | Longitude | Altitude | Speed | Heading |
|---|---|---|---|---|---|
| 2026-05-06 14:37 | 51.89213 | 0.26003 | 351 ft | 0 kts | 43° |
| 2026-05-06 14:52 | 51.89205 | 0.25990 | 361 ft | 3 kts | 49° |
| 2026-05-06 14:53 | 51.89193 | 0.25965 | 359 ft | 3 kts | 54° |
| 2026-05-06 14:53 | 51.89184 | 0.25948 | 354 ft | 3 kts | 353° |
| 2026-05-06 14:53 | 51.89171 | 0.25957 | 360 ft | 2 kts | 313° |
| 2026-05-06 14:53 | 51.89162 | 0.25972 | 357 ft | 3 kts | 313° |
| 2026-05-06 14:54 | 51.89156 | 0.25982 | 351 ft | 0 kts | 313° |
| 2026-05-06 14:55 | 51.89163 | 0.25971 | 355 ft | 5 kts | 313° |
| 2026-05-06 14:56 | 51.89205 | 0.25898 | 355 ft | 13 kts | 314° |
| 2026-05-06 14:56 | 51.89284 | 0.25759 | 351 ft | 20 kts | 313° |
| 2026-05-06 14:56 | 51.89359 | 0.25553 | 351 ft | 23 kts | 249° |
| 2026-05-06 14:56 | 51.89239 | 0.25373 | 357 ft | 25 kts | 223° |
| 2026-05-06 14:57 | 51.89102 | 0.25166 | 359 ft | 27 kts | 222° |
| 2026-05-06 14:57 | 51.88966 | 0.24963 | 354 ft | 26 kts | 223° |
| 2026-05-06 14:57 | 51.88839 | 0.24772 | 355 ft | 24 kts | 223° |
| 2026-05-06 14:57 | 51.88715 | 0.24586 | 347 ft | 27 kts | 223° |
| 2026-05-06 14:58 | 51.88575 | 0.24375 | 347 ft | 29 kts | 222° |
| 2026-05-06 14:58 | 51.88432 | 0.24160 | 343 ft | 27 kts | 223° |
| 2026-05-06 14:58 | 51.88298 | 0.23959 | 349 ft | 25 kts | 223° |
| 2026-05-06 14:58 | 51.88171 | 0.23769 | 340 ft | 25 kts | 223° |
| 2026-05-06 14:59 | 51.88051 | 0.23590 | 340 ft | 23 kts | 223° |
| 2026-05-06 14:59 | 51.87942 | 0.23425 | 338 ft | 17 kts | 222° |
| 2026-05-06 14:59 | 51.87875 | 0.23284 | 337 ft | 16 kts | 262° |
| 2026-05-06 14:59 | 51.87923 | 0.23131 | 334 ft | 16 kts | 271° |
| 2026-05-06 15:00 | 51.87856 | 0.23000 | 336 ft | 16 kts | 223° |
| 2026-05-06 15:00 | 51.87768 | 0.22869 | 337 ft | 19 kts | 223° |
| 2026-05-06 15:00 | 51.87652 | 0.22694 | 335 ft | 26 kts | 223° |
| 2026-05-06 15:00 | 51.87515 | 0.22487 | 329 ft | 27 kts | 223° |
| 2026-05-06 15:01 | 51.87408 | 0.22307 | 326 ft | 22 kts | 247° |
| 2026-05-06 15:01 | 51.87458 | 0.22105 | 322 ft | 16 kts | 313° |
| 2026-05-06 15:01 | 51.87546 | 0.22054 | 322 ft | 15 kts | 34° |
| 2026-05-06 15:01 | 51.87633 | 0.22181 | 325 ft | 28 kts | 42° |
| 2026-05-06 15:02 | 51.87953 | 0.22658 | 331 ft | 95 kts | 43° |
| 2026-05-06 15:02 | 51.88582 | 0.23596 | 359 ft | 148 kts | 40° |
| 2026-05-06 15:02 | 51.89359 | 0.24723 | 970 ft | 150 kts | 40° |
| 2026-05-06 15:02 | 51.90136 | 0.25889 | 1685 ft | 154 kts | 40° |
| 2026-05-06 15:03 | 51.90967 | 0.27143 | 2192 ft | 171 kts | 40° |
| 2026-05-06 15:03 | 51.91868 | 0.28512 | 2685 ft | 190 kts | 40° |
| 2026-05-06 15:03 | 51.93028 | 0.29739 | 2888 ft | 211 kts | 18° |
| 2026-05-06 15:03 | 51.94530 | 0.29938 | 3221 ft | 230 kts | 351° |